| time (UTC) | temp F | wind direction | speed MPH | gust MPH | rain 1hr in | rain 24hr in | rain mn in | humidity % | barometer mb |
| 20260904162115 | 79 | 300 | 2.0 | 3.0 | 0.00 | 0.00 | 0.00 | 71 | 1015.2 |
| 20260904161610 | 79 | 1 | 0.0 | 0.0 | 0.00 | 0.00 | 0.00 | 77 | 1015.5 |
| 20260904161105 | 77 | 9 | 0.0 | 0.0 | 0.00 | 0.00 | 0.00 | 81 | 1015.7 |
| 20260904160600 | 78 | 27 | 0.0 | 0.0 | 0.00 | 0.00 | 0.00 | 77 | 1015.6 |
| 20260904160057 | 77 | 357 | 1.0 | 2.0 | 0.00 | 0.00 | 0.00 | 78 | 1015.8 |
| 20260904155556 | 77 | 14 | 0.0 | 0.0 | 0.00 | 0.00 | 0.00 | 84 | 1015.7 |
| 20260904155050 | 76 | 17 | 0.0 | 0.0 | 0.00 | 0.00 | 0.00 | 88 | 1015.7 |
| 20260904154544 | 76 | 15 | 0.0 | 0.0 | 0.00 | 0.00 | 0.00 | 83 | 1015.9 |
| 20260904154039 | 76 | 17 | 0.0 | 0.0 | 0.00 | 0.00 | 0.00 | 81 | 1015.8 |
| 20260904153538 | 78 | 15 | 1.0 | 1.0 | 0.00 | 0.00 | 0.00 | 76 | 1015.9 |
| 20260904153035 | 76 | 13 | 0.0 | 0.0 | 0.00 | 0.00 | 0.00 | 87 | 1015.9 |
| 20260904152530 | 76 | 11 | 0.0 | 0.0 | 0.00 | 0.00 | 0.00 | 87 | 1016.2 |
| 20260904152026 | 77 | 10 | 0.0 | 0.0 | 0.00 | 0.00 | 0.00 | 80 | 1016.2 |
| 20260904151520 | 77 | 11 | 0.0 | 0.0 | 0.00 | 0.00 | 0.00 | 79 | 1016.1 |
| 20260904151015 | 76 | 12 | 0.0 | 0.0 | 0.00 | 0.00 | 0.00 | 85 | 1016.1 |
| 20260904150515 | 77 | 12 | 0.0 | 0.0 | 0.00 | 0.00 | 0.00 | 87 | 1016.3 |
| 20260904150009 | 77 | 10 | 0.0 | 0.0 | 0.00 | 0.00 | 0.00 | 82 | 1016.6 |
| 20260904145504 | 77 | 11 | 0.0 | 0.0 | 0.00 | 0.00 | 0.00 | 82 | 1016.4 |
| 20260904144959 | 75 | 13 | 0.0 | 0.0 | 0.00 | 0.00 | 0.00 | 86 | 1016.4 |
| 20260904144455 | 75 | 10 | 0.0 | 0.0 | 0.00 | 0.00 | 0.00 | 85 | 1016.4 |
| 20260904143950 | 77 | 10 | 0.0 | 0.0 | 0.00 | 0.00 | 0.00 | 85 | 1016.4 |
| 20260904143447 | 76 | 12 | 0.0 | 0.0 | 0.00 | 0.00 | 0.00 | 88 | 1016.1 |
| 20260904142943 | 77 | 14 | 1.0 | 2.0 | 0.00 | 0.00 | 0.00 | 83 | 1016.4 |
| 20260904142439 | 76 | 14 | 0.0 | 0.0 | 0.00 | 0.00 | 0.00 | 84 | 1016.1 |
| 20260904141938 | 76 | 14 | 0.0 | 0.0 | 0.00 | 0.00 | 0.00 | 84 | 1016.3 |
| 20260904141434 | 73 | 14 | 0.0 | 0.0 | 0.00 | 0.00 | 0.00 | 91 | 1016.3 |
| 20260904140930 | 73 | 13 | 0.0 | 0.0 | 0.00 | 0.00 | 0.00 | 93 | 1016.0 |
| 20260904140425 | 71 | 13 | 0.0 | 0.0 | 0.00 | 0.00 | 0.00 | 96 | 1016.2 |
| 20260904135924 | 71 | 14 | 0.0 | 0.0 | 0.00 | 0.00 | 0.00 | 93 | 1016.2 |
| 20260904135423 | 70 | 5 | 0.0 | 0.0 | 0.00 | 0.00 | 0.00 | 96 | 1015.8 |
| 20260904134920 | 70 | 5 | 0.0 | 0.0 | 0.00 | 0.00 | 0.00 | 96 | 1016.3 |
| 20260904134420 | 69 | 5 | 0.0 | 1.0 | 0.00 | 0.00 | 0.00 | 97 | 1016.2 |
| 20260904133915 | 69 | 2 | 0.0 | 0.0 | 0.00 | 0.00 | 0.00 | 99 | 1016.1 |
| 20260904133415 | 69 | 3 | 0.0 | 0.0 | 0.00 | 0.00 | 0.00 | 99 | 1016.2 |
| 20260904132910 | 68 | 354 | 0.0 | 0.0 | 0.00 | 0.00 | 0.00 | 99 | 1016.2 |
| 20260904132405 | 67 | 353 | 0.0 | 0.0 | 0.00 | 0.00 | 0.00 | 99 | 1016.1 |
| 20260904131904 | 67 | 353 | 1.0 | 1.0 | 0.00 | 0.00 | 0.00 | 99 | 1016.3 |
| 20260904131400 | 66 | 18 | 0.0 | 0.0 | 0.00 | 0.00 | 0.00 | 99 | 1016.4 |
| 20260904130855 | 66 | 348 | 0.0 | 0.0 | 0.00 | 0.00 | 0.00 | 99 | 1016.3 |
| 20260904130354 | 66 | 348 | 0.0 | 0.0 | 0.00 | 0.00 | 0.00 | 99 | 1016.4 |
| 20260904125849 | 66 | 334 | 0.0 | 0.0 | 0.00 | 0.00 | 0.00 | 99 | 1016.3 |
| 20260904125346 | 65 | 334 | 0.0 | 0.0 | 0.00 | 0.00 | 0.00 | 99 | 1016.3 |
| 20260904124844 | 65 | 334 | 0.0 | 0.0 | 0.00 | 0.00 | 0.00 | 99 | 1016.2 |
| 20260904124342 | 64 | 334 | 0.0 | 0.0 | 0.00 | 0.00 | 0.00 | 99 | 1016.2 |
| 20260904123836 | 64 | 334 | 0.0 | 0.0 | 0.00 | 0.00 | 0.00 | 99 | 1016.1 |
| 20260904123332 | 64 | 334 | 0.0 | 0.0 | 0.00 | 0.00 | 0.00 | 99 | 1016.2 |
| 20260904122826 | 64 | 334 | 0.0 | 0.0 | 0.00 | 0.00 | 0.00 | 99 | 1016.2 |
| 20260904122321 | 63 | 334 | 0.0 | 0.0 | 0.00 | 0.00 | 0.00 | 99 | 1016.2 |
| 20260904121816 | 63 | 334 | 0.0 | 0.0 | 0.00 | 0.00 | 0.00 | 99 | 1016.0 |
| 20260904121312 | 62 | 334 | 0.0 | 0.0 | 0.00 | 0.00 | 0.00 | 99 | 1016.2 |
| 20260904120809 | 62 | 334 | 0.0 | 0.0 | 0.00 | 0.00 | 0.00 | 99 | 1016.0 |
| 20260904120304 | 62 | 334 | 0.0 | 0.0 | 0.00 | 0.00 | 0.00 | 99 | 1016.0 |
| 20260904115759 | 62 | 334 | 0.0 | 0.0 | 0.00 | 0.00 | 0.00 | 99 | 1015.9 |
| 20260904115254 | 61 | 334 | 0.0 | 0.0 | 0.00 | 0.00 | 0.00 | 99 | 1015.7 |
| 20260904114749 | 61 | 334 | 0.0 | 0.0 | 0.00 | 0.00 | 0.00 | 99 | 1015.7 |
| 20260904114248 | 61 | 334 | 0.0 | 0.0 | 0.00 | 0.00 | 0.00 | 99 | 1015.9 |
| 20260904113744 | 61 | 334 | 0.0 | 0.0 | 0.00 | 0.00 | 0.00 | 99 | 1016.0 |
| 20260904113243 | 61 | 334 | 0.0 | 0.0 | 0.00 | 0.00 | 0.00 | 99 | 1015.9 |
| 20260904112738 | 61 | 334 | 0.0 | 0.0 | 0.00 | 0.00 | 0.00 | 99 | 1015.7 |
| 20260904112233 | 61 | 334 | 0.0 | 0.0 | 0.00 | 0.00 | 0.00 | 99 | 1015.5 |
| 20260904111729 | 60 | 334 | 0.0 | 0.0 | 0.00 | 0.00 | 0.00 | 99 | 1015.9 |
| 20260904111225 | 60 | 334 | 0.0 | 0.0 | 0.00 | 0.00 | 0.00 | 99 | 1015.5 |
| 20260904110720 | 60 | 334 | 0.0 | 0.0 | 0.00 | 0.00 | 0.00 | 99 | 1015.6 |
| 20260904110219 | 60 | 334 | 0.0 | 0.0 | 0.00 | 0.00 | 0.00 | 99 | 1015.5 |
| 20260904105714 | 60 | 334 | 0.0 | 0.0 | 0.00 | 0.00 | 0.00 | 99 | 1015.5 |
| 20260904105209 | 60 | 334 | 0.0 | 0.0 | 0.00 | 0.00 | 0.00 | 99 | 1015.1 |
| 20260904104704 | 60 | 334 | 0.0 | 0.0 | 0.00 | 0.00 | 0.00 | 99 | 1015.1 |
| 20260904104200 | 60 | 334 | 0.0 | 0.0 | 0.00 | 0.00 | 0.00 | 99 | 1014.9 |
| 20260904103656 | 61 | 334 | 0.0 | 0.0 | 0.00 | 0.00 | 0.00 | 99 | 1014.9 |
| 20260904103151 | 60 | 334 | 0.0 | 0.0 | 0.00 | 0.00 | 0.00 | 99 | 1015.2 |
| 20260904102647 | 61 | 334 | 0.0 | 0.0 | 0.00 | 0.00 | 0.00 | 99 | 1015.0 |
| 20260904102142 | 61 | 334 | 0.0 | 0.0 | 0.00 | 0.00 | 0.00 | 99 | 1015.1 |
| 20260904101639 | 61 | 334 | 0.0 | 0.0 | 0.00 | 0.00 | 0.00 | 99 | 1015.0 |
| 20260904101134 | 61 | 334 | 0.0 | 0.0 | 0.00 | 0.00 | 0.00 | 99 | 1015.2 |
| 20260904100630 | 61 | 334 | 0.0 | 0.0 | 0.00 | 0.00 | 0.00 | 99 | 1015.1 |
| 20260904100125 | 62 | 334 | 0.0 | 0.0 | 0.00 | 0.00 | 0.00 | 99 | 1014.9 |
| 20260904095620 | 62 | 334 | 0.0 | 0.0 | 0.00 | 0.00 | 0.00 | 99 | 1014.9 |
| 20260904095120 | 62 | 334 | 0.0 | 0.0 | 0.00 | 0.00 | 0.00 | 99 | 1014.8 |
| 20260904094614 | 62 | 334 | 0.0 | 0.0 | 0.00 | 0.00 | 0.00 | 99 | 1014.9 |
| 20260904094109 | 62 | 334 | 0.0 | 0.0 | 0.00 | 0.00 | 0.00 | 99 | 1014.9 |
| 20260904093607 | 62 | 334 | 0.0 | 0.0 | 0.00 | 0.00 | 0.00 | 99 | 1015.2 |
| 20260904093101 | 62 | 334 | 0.0 | 0.0 | 0.00 | 0.00 | 0.00 | 99 | 1014.8 |
| 20260904092557 | 62 | 334 | 0.0 | 0.0 | 0.00 | 0.00 | 0.00 | 99 | 1014.6 |
| 20260904092053 | 62 | 334 | 0.0 | 0.0 | 0.00 | 0.00 | 0.00 | 99 | 1014.8 |
| 20260904091549 | 62 | 334 | 0.0 | 0.0 | 0.00 | 0.00 | 0.00 | 99 | 1014.7 |
| 20260904091048 | 62 | 334 | 0.0 | 0.0 | 0.00 | 0.00 | 0.00 | 99 | 1014.8 |
| 20260904090544 | 63 | 334 | 0.0 | 0.0 | 0.00 | 0.00 | 0.00 | 99 | 1014.7 |
| 20260904090040 | 62 | 334 | 0.0 | 0.0 | 0.00 | 0.00 | 0.00 | 99 | 1014.7 |
| 20260904085540 | 63 | 334 | 0.0 | 0.0 | 0.00 | 0.00 | 0.00 | 99 | 1014.8 |
| 20260904085039 | 63 | 334 | 0.0 | 0.0 | 0.00 | 0.00 | 0.00 | 99 | 1014.8 |
| 20260904084535 | 63 | 334 | 0.0 | 0.0 | 0.00 | 0.00 | 0.00 | 99 | 1014.7 |
| 20260904084032 | 63 | 334 | 0.0 | 0.0 | 0.00 | 0.00 | 0.00 | 99 | 1014.8 |
| 20260904083527 | 63 | 334 | 0.0 | 0.0 | 0.00 | 0.00 | 0.00 | 99 | 1014.7 |
| 20260904083023 | 64 | 334 | 0.0 | 0.0 | 0.00 | 0.00 | 0.00 | 99 | 1014.4 |
| 20260904082518 | 64 | 334 | 0.0 | 0.0 | 0.00 | 0.00 | 0.00 | 99 | 1014.3 |
| 20260904082013 | 64 | 334 | 0.0 | 0.0 | 0.00 | 0.00 | 0.00 | 99 | 1014.3 |
| 20260904081509 | 64 | 334 | 0.0 | 0.0 | 0.00 | 0.00 | 0.00 | 99 | 1014.2 |
| 20260904081004 | 65 | 334 | 0.0 | 0.0 | 0.00 | 0.00 | 0.00 | 99 | 1014.0 |
| 20260904080459 | 65 | 334 | 0.0 | 0.0 | 0.00 | 0.00 | 0.00 | 99 | 1014.1 |
| 20260904075955 | 65 | 334 | 0.0 | 0.0 | 0.00 | 0.00 | 0.00 | 99 | 1014.2 |
| 20260904075451 | 65 | 334 | 0.0 | 0.0 | 0.00 | 0.00 | 0.00 | 99 | 1014.0 |
| 20260904074950 | 65 | 334 | 0.0 | 0.0 | 0.00 | 0.00 | 0.00 | 99 | 1014.1 |
| 20260904074445 | 65 | 334 | 0.0 | 0.0 | 0.00 | 0.00 | 0.00 | 99 | 1014.2 |
| 20260904073940 | 65 | 334 | 0.0 | 0.0 | 0.00 | 0.00 | 0.00 | 99 | 1014.1 |
| 20260904073436 | 65 | 334 | 0.0 | 0.0 | 0.00 | 0.00 | 0.00 | 99 | 1014.3 |
| 20260904072931 | 65 | 334 | 0.0 | 0.0 | 0.00 | 0.00 | 0.00 | 99 | 1014.1 |
| 20260904072426 | 66 | 334 | 0.0 | 0.0 | 0.00 | 0.00 | 0.00 | 99 | 1014.6 |
| 20260904071921 | 65 | 334 | 0.0 | 0.0 | 0.00 | 0.00 | 0.00 | 99 | 1014.6 |
| 20260904071417 | 65 | 334 | 0.0 | 0.0 | 0.00 | 0.00 | 0.00 | 99 | 1014.4 |
| 20260904070912 | 65 | 334 | 0.0 | 0.0 | 0.00 | 0.00 | 0.00 | 99 | 1014.4 |
| 20260904070411 | 66 | 334 | 0.0 | 0.0 | 0.00 | 0.00 | 0.00 | 99 | 1014.3 |
| 20260904065910 | 66 | 334 | 0.0 | 0.0 | 0.00 | 0.00 | 0.00 | 99 | 1014.7 |
| 20260904065407 | 66 | 334 | 0.0 | 0.0 | 0.00 | 0.00 | 0.00 | 99 | 1015.0 |
| 20260904064906 | 66 | 334 | 0.0 | 0.0 | 0.00 | 0.00 | 0.00 | 99 | 1014.9 |
| 20260904064403 | 66 | 334 | 0.0 | 0.0 | 0.00 | 0.00 | 0.00 | 99 | 1014.8 |
| 20260904063858 | 66 | 334 | 0.0 | 0.0 | 0.00 | 0.00 | 0.00 | 99 | 1014.7 |
| 20260904063354 | 66 | 334 | 0.0 | 0.0 | 0.00 | 0.00 | 0.00 | 99 | 1015.1 |
| 20260904062849 | 66 | 334 | 0.0 | 0.0 | 0.00 | 0.00 | 0.00 | 99 | 1015.2 |
| 20260904062345 | 66 | 334 | 0.0 | 0.0 | 0.00 | 0.00 | 0.00 | 99 | 1015.1 |
| 20260904061841 | 66 | 334 | 0.0 | 0.0 | 0.00 | 0.00 | 0.00 | 99 | 1015.5 |
| 20260904061337 | 66 | 334 | 0.0 | 0.0 | 0.00 | 0.00 | 0.00 | 99 | 1015.4 |
| 20260904060833 | 66 | 334 | 0.0 | 0.0 | 0.00 | 0.00 | 0.00 | 99 | 1015.4 |
| 20260904060329 | 66 | 334 | 0.0 | 0.0 | 0.00 | 0.00 | 0.00 | 99 | 1015.7 |
| 20260904055824 | 66 | 334 | 0.0 | 0.0 | 0.00 | 0.00 | 0.00 | 99 | 1015.4 |
| 20260904055319 | 66 | 334 | 0.0 | 0.0 | 0.00 | 0.00 | 0.00 | 99 | 1015.5 |
| 20260904054814 | 66 | 334 | 0.0 | 0.0 | 0.00 | 0.00 | 0.00 | 99 | 1015.4 |
| 20260904054310 | 66 | 334 | 0.0 | 0.0 | 0.00 | 0.00 | 0.00 | 99 | 1015.2 |
| 20260904053800 | 66 | 334 | 0.0 | 0.0 | 0.00 | 0.00 | 0.00 | 99 | 1015.4 |
| 20260904053259 | 66 | 334 | 0.0 | 0.0 | 0.00 | 0.00 | 0.00 | 99 | 1015.4 |
| 20260904052756 | 66 | 334 | 0.0 | 0.0 | 0.00 | 0.00 | 0.00 | 99 | 1015.1 |
| 20260904052251 | 66 | 334 | 0.0 | 0.0 | 0.00 | 0.00 | 0.00 | 99 | 1015.2 |
| 20260904051748 | 66 | 334 | 0.0 | 0.0 | 0.00 | 0.00 | 0.00 | 99 | 1015.2 |
| 20260904051243 | 66 | 334 | 0.0 | 0.0 | 0.00 | 0.00 | 0.00 | 99 | 1015.6 |
| 20260904050738 | 66 | 334 | 0.0 | 0.0 | 0.00 | 0.00 | 0.00 | 99 | 1015.4 |
| 20260904050234 | 66 | 334 | 0.0 | 0.0 | 0.00 | 0.00 | 0.00 | 99 | 1015.6 |
| 20260904045729 | 66 | 334 | 0.0 | 0.0 | 0.00 | 0.00 | 0.00 | 99 | 1015.5 |
| 20260904045224 | 66 | 334 | 0.0 | 0.0 | 0.00 | 0.00 | 0.00 | 99 | 1015.8 |
| 20260904044718 | 66 | 334 | 0.0 | 0.0 | 0.00 | 0.00 | 0.00 | 99 | 1015.9 |
| 20260904044215 | 66 | 334 | 0.0 | 0.0 | 0.00 | 0.00 | 0.00 | 99 | 1015.8 |
| 20260904043711 | 66 | 334 | 0.0 | 0.0 | 0.00 | 0.00 | 0.00 | 99 | 1015.8 |
| 20260904043207 | 66 | 334 | 0.0 | 0.0 | 0.00 | 0.00 | 0.00 | 99 | 1016.0 |
| 20260904042703 | 66 | 334 | 0.0 | 0.0 | 0.00 | 0.00 | 0.00 | 99 | 1015.9 |
| 20260904042158 | 66 | 334 | 0.0 | 0.0 | 0.00 | 0.00 | 0.00 | 99 | 1015.8 |
| 20260904041647 | 66 | 334 | 0.0 | 0.0 | 0.00 | 0.00 | 0.00 | 99 | 1015.7 |
| 20260904041144 | 66 | 334 | 0.0 | 0.0 | 0.00 | 0.00 | 0.00 | 99 | 1015.9 |
| 20260904040639 | 67 | 334 | 0.0 | 0.0 | 0.00 | 0.00 | 0.00 | 99 | 1016.0 |
| 20260904040135 | 67 | 334 | 0.0 | 0.0 | 0.00 | 0.00 | 0.00 | 99 | 1015.7 |
| 20260904035631 | 67 | 334 | 0.0 | 0.0 | 0.00 | 0.14 | 0.14 | 99 | 1015.7 |
| 20260904035131 | 67 | 334 | 0.0 | 0.0 | 0.00 | 0.14 | 0.14 | 99 | 1015.8 |
| 20260904034630 | 67 | 334 | 0.0 | 0.0 | 0.00 | 0.14 | 0.14 | 99 | 1016.1 |
| 20260904034125 | 67 | 334 | 0.0 | 0.0 | 0.00 | 0.14 | 0.14 | 99 | 1016.0 |
| 20260904033621 | 67 | 334 | 0.0 | 0.0 | 0.00 | 0.14 | 0.14 | 99 | 1015.9 |
| 20260904033119 | 67 | 334 | 0.0 | 0.0 | 0.00 | 0.14 | 0.14 | 99 | 1015.7 |
| 20260904032614 | 67 | 334 | 0.0 | 0.0 | 0.00 | 0.14 | 0.14 | 99 | 1015.8 |
| 20260904032113 | 67 | 334 | 0.0 | 0.0 | 0.00 | 0.14 | 0.14 | 99 | 1015.8 |
| 20260904031612 | 67 | 334 | 0.0 | 0.0 | 0.00 | 0.14 | 0.14 | 99 | 1015.9 |
| 20260904031108 | 67 | 334 | 0.0 | 0.0 | 0.00 | 0.14 | 0.14 | 99 | 1016.1 |
| 20260904030604 | 67 | 334 | 0.0 | 0.0 | 0.00 | 0.14 | 0.14 | 99 | 1016.2 |
| 20260904030059 | 67 | 334 | 0.0 | 0.0 | 0.00 | 0.14 | 0.14 | 99 | 1016.3 |
| 20260904025555 | 67 | 334 | 0.0 | 0.0 | 0.00 | 0.14 | 0.14 | 99 | 1016.0 |
| 20260904025050 | 67 | 334 | 0.0 | 0.0 | 0.00 | 0.14 | 0.14 | 99 | 1015.9 |
| 20260904024545 | 68 | 334 | 0.0 | 0.0 | 0.00 | 0.14 | 0.14 | 99 | 1016.1 |
| 20260904024041 | 68 | 334 | 0.0 | 0.0 | 0.00 | 0.14 | 0.14 | 99 | 1016.3 |
| 20260904023537 | 68 | 334 | 0.0 | 0.0 | 0.00 | 0.14 | 0.14 | 99 | 1016.4 |
| 20260904023032 | 68 | 334 | 0.0 | 0.0 | 0.00 | 0.14 | 0.14 | 99 | 1016.5 |
| 20260904022527 | 68 | 334 | 0.0 | 0.0 | 0.00 | 0.14 | 0.14 | 99 | 1016.5 |
| 20260904022024 | 67 | 334 | 0.0 | 0.0 | 0.00 | 0.14 | 0.14 | 99 | 1016.9 |
| 20260904021519 | 67 | 334 | 0.0 | 0.0 | 0.00 | 0.14 | 0.14 | 99 | 1016.5 |
| 20260904021015 | 67 | 334 | 0.0 | 0.0 | 0.00 | 0.14 | 0.14 | 99 | 1016.5 |
| 20260904020515 | 67 | 334 | 0.0 | 0.0 | 0.00 | 0.14 | 0.14 | 99 | 1016.8 |
| 20260904020009 | 67 | 334 | 0.0 | 0.0 | 0.00 | 0.14 | 0.14 | 99 | 1016.7 |
| 20260904015504 | 67 | 334 | 0.0 | 0.0 | 0.00 | 0.14 | 0.14 | 99 | 1016.7 |
| 20260904015002 | 67 | 334 | 0.0 | 0.0 | 0.00 | 0.14 | 0.14 | 99 | 1016.5 |
| 20260904014457 | 67 | 334 | 0.0 | 0.0 | 0.00 | 0.14 | 0.14 | 99 | 1016.4 |
| 20260904013953 | 67 | 334 | 0.0 | 0.0 | 0.00 | 0.14 | 0.14 | 99 | 1016.3 |
| 20260904013449 | 67 | 334 | 0.0 | 0.0 | 0.00 | 0.14 | 0.14 | 99 | 1016.5 |
| 20260904012945 | 68 | 334 | 0.0 | 0.0 | 0.00 | 0.14 | 0.14 | 99 | 1016.5 |
| 20260904012444 | 68 | 334 | 0.0 | 0.0 | 0.00 | 0.14 | 0.14 | 99 | 1016.5 |
| 20260904011939 | 68 | 334 | 0.0 | 0.0 | 0.00 | 0.14 | 0.14 | 99 | 1016.7 |
| 20260904011433 | 68 | 334 | 0.0 | 0.0 | 0.00 | 0.14 | 0.14 | 99 | 1016.7 |
| 20260904010929 | 68 | 334 | 0.0 | 0.0 | 0.00 | 0.14 | 0.14 | 99 | 1016.4 |
| 20260904010425 | 68 | 334 | 0.0 | 0.0 | 0.00 | 0.14 | 0.14 | 99 | 1016.5 |
| 20260904005919 | 68 | 334 | 0.0 | 0.0 | 0.00 | 0.14 | 0.14 | 99 | 1016.5 |
| 20260904005410 | 68 | 334 | 0.0 | 0.0 | 0.00 | 0.14 | 0.14 | 99 | 1016.4 |
| 20260904004910 | 68 | 334 | 0.0 | 0.0 | 0.00 | 0.14 | 0.14 | 99 | 1016.5 |
| 20260904004406 | 68 | 334 | 0.0 | 0.0 | 0.00 | 0.14 | 0.14 | 99 | 1016.5 |
| 20260904003901 | 69 | 334 | 0.0 | 0.0 | 0.00 | 0.14 | 0.14 | 99 | 1016.3 |
| 20260904003356 | 69 | 334 | 0.0 | 0.0 | 0.00 | 0.14 | 0.14 | 99 | 1016.3 |
| 20260904002851 | 69 | 334 | 0.0 | 0.0 | 0.00 | 0.14 | 0.14 | 99 | 1016.2 |
| 20260904002348 | 69 | 334 | 0.0 | 0.0 | 0.00 | 0.14 | 0.14 | 99 | 1016.4 |
| 20260904001847 | 69 | 334 | 0.0 | 0.0 | 0.00 | 0.14 | 0.14 | 99 | 1016.3 |
| 20260904001343 | 69 | 334 | 0.0 | 0.0 | 0.00 | 0.14 | 0.14 | 99 | 1016.4 |
| 20260904000837 | 69 | 334 | 0.0 | 0.0 | 0.00 | 0.14 | 0.14 | 99 | 1016.2 |
| 20260904000336 | 70 | 334 | 0.0 | 0.0 | 0.00 | 0.14 | 0.14 | 99 | 1016.6 |
| 20260903235831 | 70 | 334 | 0.0 | 0.0 | 0.00 | 0.14 | 0.14 | 99 | 1016.5 |
| 20260903235328 | 70 | 334 | 0.0 | 0.0 | 0.00 | 0.14 | 0.14 | 99 | 1016.4 |
| 20260903234826 | 70 | 334 | 0.0 | 0.0 | 0.00 | 0.14 | 0.14 | 99 | 1016.2 |
| 20260903234323 | 70 | 334 | 0.0 | 0.0 | 0.00 | 0.14 | 0.14 | 99 | 1015.9 |
| 20260903233819 | 71 | 334 | 0.0 | 0.0 | 0.00 | 0.14 | 0.14 | 99 | 1016.0 |
| 20260903233315 | 71 | 334 | 0.0 | 0.0 | 0.00 | 0.14 | 0.14 | 99 | 1015.7 |
| 20260903232814 | 71 | 334 | 0.0 | 0.0 | 0.00 | 0.14 | 0.14 | 99 | 1016.0 |
| 20260903232310 | 72 | 334 | 0.0 | 0.0 | 0.00 | 0.14 | 0.14 | 99 | 1015.7 |
| 20260903231809 | 72 | 334 | 0.0 | 0.0 | 0.00 | 0.14 | 0.14 | 99 | 1015.5 |
| 20260903231304 | 73 | 334 | 0.0 | 0.0 | 0.00 | 0.14 | 0.14 | 99 | 1015.7 |
| 20260903230759 | 73 | 334 | 0.0 | 0.0 | 0.00 | 0.14 | 0.14 | 99 | 1016.1 |
| 20260903230254 | 73 | 334 | 0.0 | 0.0 | 0.00 | 0.14 | 0.14 | 99 | 1016.2 |
| 20260903225750 | 74 | 334 | 0.0 | 0.0 | 0.00 | 0.14 | 0.14 | 99 | 1016.1 |
| 20260903225246 | 74 | 334 | 0.0 | 0.0 | 0.00 | 0.14 | 0.14 | 99 | 1016.0 |
| 20260903224743 | 74 | 334 | 0.0 | 0.0 | 0.00 | 0.14 | 0.14 | 99 | 1015.8 |
| 20260903224239 | 74 | 334 | 0.0 | 0.0 | 0.00 | 0.14 | 0.14 | 99 | 1015.7 |
| 20260903223734 | 75 | 334 | 0.0 | 0.0 | 0.00 | 0.14 | 0.14 | 99 | 1015.8 |
| 20260903223232 | 75 | 334 | 0.0 | 0.0 | 0.00 | 0.14 | 0.14 | 99 | 1015.9 |
| 20260903222727 | 75 | 334 | 0.0 | 0.0 | 0.00 | 0.14 | 0.14 | 98 | 1016.0 |
| 20260903222226 | 75 | 334 | 0.0 | 0.0 | 0.00 | 0.14 | 0.14 | 98 | 1015.9 |
| 20260903221721 | 76 | 334 | 0.0 | 0.0 | 0.00 | 0.14 | 0.14 | 97 | 1015.6 |
| 20260903221220 | 76 | 334 | 0.0 | 0.0 | 0.00 | 0.14 | 0.14 | 96 | 1015.8 |
| 20260903220719 | 76 | 334 | 0.0 | 0.0 | 0.00 | 0.14 | 0.14 | 96 | 1015.8 |
| 20260903220214 | 77 | 334 | 0.0 | 0.0 | 0.00 | 0.14 | 0.14 | 96 | 1015.8 |
| 20260903215712 | 77 | 334 | 0.0 | 0.0 | 0.00 | 0.14 | 0.14 | 96 | 1015.8 |
| 20260903215208 | 77 | 334 | 0.0 | 0.0 | 0.00 | 0.14 | 0.14 | 95 | 1015.9 |
| 20260903214706 | 77 | 334 | 0.0 | 0.0 | 0.00 | 0.14 | 0.14 | 96 | 1015.8 |
| 20260903214202 | 77 | 334 | 0.0 | 0.0 | 0.00 | 0.14 | 0.14 | 96 | 1015.8 |
| 20260903213656 | 77 | 334 | 0.0 | 0.0 | 0.00 | 0.14 | 0.14 | 95 | 1015.9 |
| 20260903213152 | 78 | 334 | 0.0 | 0.0 | 0.00 | 0.14 | 0.14 | 95 | 1015.6 |
| 20260903212647 | 78 | 334 | 0.0 | 0.0 | 0.00 | 0.14 | 0.14 | 94 | 1015.9 |
| 20260903212144 | 78 | 334 | 0.0 | 0.0 | 0.00 | 0.14 | 0.14 | 92 | 1015.8 |
| 20260903211637 | 78 | 334 | 0.0 | 0.0 | 0.00 | 0.14 | 0.14 | 91 | 1015.8 |
| 20260903211134 | 78 | 334 | 0.0 | 0.0 | 0.00 | 0.14 | 0.14 | 91 | 1015.7 |
| 20260903210629 | 79 | 334 | 0.0 | 0.0 | 0.00 | 0.14 | 0.14 | 90 | 1015.8 |
| 20260903210126 | 79 | 334 | 0.0 | 0.0 | 0.00 | 0.14 | 0.14 | 89 | 1015.8 |
| 20260903205625 | 81 | 334 | 0.0 | 0.0 | 0.00 | 0.14 | 0.14 | 87 | 1015.7 |
| 20260903205119 | 82 | 335 | 0.0 | 0.0 | 0.00 | 0.14 | 0.14 | 85 | 1015.9 |
| 20260903204615 | 81 | 336 | 0.0 | 0.0 | 0.00 | 0.14 | 0.14 | 87 | 1015.7 |
| 20260903204110 | 81 | 335 | 0.0 | 0.0 | 0.00 | 0.14 | 0.14 | 86 | 1015.7 |
| 20260903203606 | 80 | 335 | 0.0 | 0.0 | 0.00 | 0.14 | 0.14 | 91 | 1015.9 |
| 20260903203106 | 80 | 335 | 0.0 | 0.0 | 0.00 | 0.14 | 0.14 | 88 | 1015.8 |
| 20260903202555 | 81 | 334 | 0.0 | 1.0 | 0.00 | 0.14 | 0.14 | 85 | 1015.9 |
| 20260903202051 | 81 | 334 | 0.0 | 0.0 | 0.00 | 0.14 | 0.14 | 85 | 1015.7 |
| 20260903201545 | 83 | 334 | 0.0 | 0.0 | 0.00 | 0.14 | 0.14 | 85 | 1015.8 |
| 20260903201045 | 81 | 336 | 0.0 | 0.0 | 0.00 | 0.14 | 0.14 | 87 | 1015.6 |
| 20260903200540 | 82 | 335 | 0.0 | 0.0 | 0.00 | 0.14 | 0.14 | 84 | 1015.7 |
| 20260903200035 | 83 | 334 | 0.0 | 0.0 | 0.00 | 0.14 | 0.14 | 82 | 1015.9 |
| 20260903195531 | 84 | 335 | 0.0 | 0.0 | 0.00 | 0.14 | 0.14 | 77 | 1015.7 |
| 20260903195026 | 84 | 336 | 0.0 | 0.0 | 0.00 | 0.14 | 0.14 | 77 | 1015.7 |
| 20260903194522 | 82 | 336 | 0.0 | 0.0 | 0.00 | 0.14 | 0.14 | 85 | 1015.6 |
| 20260903194016 | 82 | 335 | 0.0 | 0.0 | 0.00 | 0.14 | 0.14 | 90 | 1015.9 |
| 20260903193512 | 82 | 335 | 0.0 | 0.0 | 0.00 | 0.14 | 0.14 | 87 | 1015.8 |
| 20260903193007 | 82 | 335 | 0.0 | 0.0 | 0.00 | 0.14 | 0.14 | 84 | 1016.0 |
| 20260903192504 | 81 | 335 | 0.0 | 0.0 | 0.00 | 0.14 | 0.14 | 83 | 1016.2 |
| 20260903191959 | 82 | 335 | 0.0 | 0.0 | 0.00 | 0.14 | 0.14 | 87 | 1016.1 |
| 20260903191455 | 82 | 334 | 0.0 | 0.0 | 0.00 | 0.14 | 0.14 | 83 | 1016.2 |
| 20260903190955 | 83 | 335 | 0.0 | 0.0 | 0.00 | 0.14 | 0.14 | 84 | 1016.1 |
| 20260903190449 | 86 | 335 | 0.0 | 0.0 | 0.00 | 0.14 | 0.14 | 75 | 1016.0 |
| 20260903185949 | 84 | 336 | 0.0 | 0.0 | 0.00 | 0.14 | 0.14 | 79 | 1016.3 |
| 20260903185445 | 85 | 335 | 0.0 | 0.0 | 0.00 | 0.14 | 0.14 | 79 | 1016.5 |
| 20260903184944 | 85 | 336 | 0.0 | 0.0 | 0.00 | 0.14 | 0.14 | 73 | 1016.4 |
| 20260903184442 | 84 | 313 | 0.0 | 0.0 | 0.00 | 0.14 | 0.14 | 84 | 1016.5 |
| 20260903183936 | 82 | 296 | 1.0 | 1.0 | 0.00 | 0.14 | 0.14 | 84 | 1016.4 |
| 20260903183430 | 82 | 329 | 2.0 | 2.0 | 0.00 | 0.14 | 0.14 | 82 | 1016.3 |
| 20260903182930 | 82 | 10 | 1.0 | 1.0 | 0.00 | 0.14 | 0.14 | 80 | 1016.5 |
| 20260903182429 | 81 | 10 | 0.0 | 0.0 | 0.00 | 0.14 | 0.14 | 81 | 1016.4 |
| 20260903181925 | 79 | 11 | 0.0 | 0.0 | 0.00 | 0.14 | 0.14 | 93 | 1016.5 |
| 20260903181419 | 79 | 11 | 0.0 | 0.0 | 0.00 | 0.14 | 0.14 | 92 | 1016.6 |
| 20260903180918 | 79 | 10 | 0.0 | 0.0 | 0.00 | 0.14 | 0.14 | 90 | 1016.7 |
| 20260903180413 | 79 | 10 | 0.0 | 0.0 | 0.00 | 0.14 | 0.14 | 90 | 1016.6 |
| 20260903175912 | 79 | 10 | 0.0 | 0.0 | 0.00 | 0.14 | 0.14 | 91 | 1016.7 |
| 20260903175407 | 79 | 9 | 0.0 | 0.0 | 0.00 | 0.14 | 0.14 | 91 | 1016.6 |
| 20260903174901 | 80 | 10 | 0.0 | 0.0 | 0.00 | 0.14 | 0.14 | 92 | 1016.9 |
| 20260903174357 | 80 | 10 | 0.0 | 0.0 | 0.00 | 0.14 | 0.14 | 87 | 1016.7 |
| 20260903173856 | 80 | 10 | 0.0 | 0.0 | 0.00 | 0.14 | 0.14 | 84 | 1016.9 |
| 20260903173352 | 80 | 11 | 0.0 | 0.0 | 0.00 | 0.14 | 0.14 | 84 | 1016.9 |
| 20260903172848 | 79 | 11 | 0.0 | 1.0 | 0.00 | 0.14 | 0.14 | 85 | 1017.0 |
| 20260903172342 | 79 | 11 | 0.0 | 0.0 | 0.00 | 0.14 | 0.14 | 93 | 1016.8 |
| 20260903171838 | 79 | 10 | 0.0 | 0.0 | 0.00 | 0.14 | 0.14 | 93 | 1017.2 |
| 20260903171333 | 79 | 10 | 0.0 | 0.0 | 0.00 | 0.14 | 0.14 | 90 | 1017.4 |
| 20260903170832 | 78 | 10 | 0.0 | 0.0 | 0.00 | 0.14 | 0.14 | 87 | 1017.2 |
| 20260903170328 | 78 | 10 | 0.0 | 0.0 | 0.00 | 0.14 | 0.14 | 90 | 1017.0 |
| 20260903165826 | 78 | 10 | 0.0 | 0.0 | 0.00 | 0.14 | 0.14 | 89 | 1017.2 |
| 20260903165326 | 77 | 11 | 0.0 | 0.0 | 0.00 | 0.14 | 0.14 | 87 | 1017.3 |
| 20260903164826 | 78 | 10 | 0.0 | 1.0 | 0.00 | 0.14 | 0.14 | 87 | 1017.3 |
| 20260903164321 | 78 | 10 | 0.0 | 0.0 | 0.00 | 0.14 | 0.14 | 87 | 1017.2 |
| 20260903163820 | 78 | 10 | 0.0 | 0.0 | 0.00 | 0.14 | 0.14 | 85 | 1017.3 |
| 20260903163317 | 79 | 10 | 0.0 | 0.0 | 0.00 | 0.14 | 0.14 | 88 | 1017.3 |
| 20260903162813 | 79 | 10 | 0.0 | 0.0 | 0.00 | 0.14 | 0.14 | 90 | 1017.2 |
| 20260903162309 | 80 | 10 | 0.0 | 0.0 | 0.00 | 0.14 | 0.14 | 82 | 1017.0 |